createdAt,value
2022-08-02T00:00:15.449Z,13.57
2022-08-02T00:00:37.438Z,16.17
2022-08-02T00:00:59.354Z,17.45
2022-08-02T00:01:21.213Z,14.40
2022-08-02T00:01:44.598Z,14.85
2022-08-02T00:02:06.544Z,16.73
2022-08-02T00:02:28.514Z,16.45
2022-08-02T00:02:50.426Z,15.45
2022-08-02T00:03:12.293Z,14.65
2022-08-02T00:03:34.595Z,15.60
2022-08-02T00:03:57.614Z,15.38
2022-08-02T00:04:19.965Z,15.30
2022-08-02T00:04:41.877Z,15.43
2022-08-02T00:05:04.397Z,15.27
2022-08-02T00:05:27.959Z,15.57
2022-08-02T00:05:53.601Z,14.45
2022-08-02T00:06:15.761Z,14.43
2022-08-02T00:06:38.235Z,17.25
2022-08-02T00:07:00.837Z,16.23
2022-08-02T00:07:23.179Z,16.67
2022-08-02T00:07:45.437Z,17.05
2022-08-02T00:08:07.611Z,16.15
2022-08-02T00:08:29.521Z,16.10
2022-08-02T00:08:51.567Z,14.65
2022-08-02T00:09:13.731Z,15.95
2022-08-02T00:09:36.057Z,14.95
2022-08-02T00:09:57.991Z,13.85
2022-08-02T00:10:20.013Z,15.05
2022-08-02T00:10:41.824Z,15.90
2022-08-02T00:11:03.824Z,13.73
2022-08-02T00:11:25.804Z,14.15
2022-08-02T00:11:47.864Z,16.70
2022-08-02T00:12:10.472Z,15.63
2022-08-02T00:12:32.553Z,15.55
2022-08-02T00:12:54.432Z,14.53
2022-08-02T00:13:17.211Z,14.93
2022-08-02T00:13:39.078Z,15.77
2022-08-02T00:14:00.949Z,14.25
2022-08-02T00:14:23.235Z,14.38
2022-08-02T00:14:45.279Z,12.75
2022-08-02T00:15:09.010Z,14.52
2022-08-02T00:15:30.769Z,15.10
2022-08-02T00:15:52.605Z,13.63
2022-08-02T00:16:16.888Z,14.63
2022-08-02T00:16:39.463Z,14.02
2022-08-02T00:17:02.729Z,12.05
2022-08-02T00:17:24.590Z,12.35
2022-08-02T00:17:47.347Z,14.63
2022-08-02T00:18:10.524Z,13.27
2022-08-02T00:18:32.451Z,14.57
2022-08-02T00:18:54.379Z,15.57
2022-08-02T00:19:16.247Z,13.45
2022-08-02T00:19:38.100Z,12.82
2022-08-02T00:20:00.071Z,15.50
2022-08-02T00:20:22.189Z,13.68
2022-08-02T00:20:44.095Z,15.57
2022-08-02T00:21:05.985Z,17.05
2022-08-02T00:21:27.927Z,15.80
2022-08-02T00:21:49.767Z,14.75
2022-08-02T00:22:11.764Z,13.68
2022-08-02T00:22:33.729Z,14.15
2022-08-02T00:22:55.523Z,15.38
2022-08-02T00:23:17.449Z,13.30
2022-08-02T00:24:28.113Z,13.80
2022-08-02T00:24:29.284Z,13.27
2022-08-02T00:24:52.244Z,12.95
2022-08-02T00:25:14.396Z,13.93
2022-08-02T00:25:36.189Z,13.40
2022-08-02T00:26:17.500Z,13.75
2022-08-02T00:26:39.285Z,13.85
2022-08-02T00:27:09.509Z,12.15
2022-08-02T00:27:31.762Z,15.45
2022-08-02T00:27:53.525Z,13.10
2022-08-02T00:28:15.352Z,12.85
2022-08-02T00:28:37.302Z,15.65
2022-08-02T00:28:59.668Z,14.52
2022-08-02T00:29:21.555Z,13.63
2022-08-02T00:29:52.545Z,11.90
2022-08-02T00:30:15.130Z,13.60
2022-08-02T00:30:39.691Z,13.57
2022-08-02T00:31:01.534Z,12.73
2022-08-02T00:31:23.488Z,11.38
2022-08-02T00:31:45.366Z,13.52
2022-08-02T00:32:07.706Z,12.45
2022-08-02T00:32:29.700Z,13.00
2022-08-02T00:32:51.456Z,12.50
2022-08-02T00:33:14.840Z,12.07
2022-08-02T00:34:27.363Z,11.88
2022-08-02T00:34:29.839Z,13.75
2022-08-02T00:34:53.802Z,13.95
2022-08-02T00:35:15.642Z,14.57
2022-08-02T00:35:40.631Z,12.18
2022-08-02T00:36:03.766Z,13.20
2022-08-02T00:36:25.776Z,14.15
2022-08-02T00:36:47.590Z,15.73
2022-08-02T00:37:09.361Z,13.65
2022-08-02T00:37:31.305Z,11.80
2022-08-02T00:37:53.034Z,13.77
2022-08-02T00:38:14.928Z,13.05
2022-08-02T00:38:37.139Z,12.80
2022-08-02T00:38:59.039Z,13.70
2022-08-02T00:39:33.955Z,13.82
2022-08-02T00:39:58.127Z,13.88
2022-08-02T00:40:23.578Z,14.82
2022-08-02T00:40:49.510Z,15.05
2022-08-02T00:41:14.001Z,12.68
2022-08-02T00:41:47.050Z,15.63
2022-08-02T00:42:09.963Z,14.15
2022-08-02T00:42:31.978Z,14.05
2022-08-02T00:43:11.367Z,12.68
2022-08-02T00:43:33.404Z,11.75
2022-08-02T00:43:55.233Z,14.48
2022-08-02T00:44:18.078Z,12.43
2022-08-02T00:44:39.872Z,11.73
2022-08-02T00:45:01.701Z,11.13
2022-08-02T00:46:02.389Z,11.82
2022-08-02T00:46:05.419Z,11.65
2022-08-02T00:46:27.798Z,12.82
2022-08-02T00:46:49.693Z,12.68
2022-08-02T00:47:11.570Z,13.57
2022-08-02T00:47:37.035Z,13.55
2022-08-02T00:47:59.499Z,13.63
2022-08-02T00:48:22.138Z,11.90
2022-08-02T00:48:44.142Z,12.02
2022-08-02T00:49:06.230Z,12.07
2022-08-02T00:49:29.017Z,13.82
2022-08-02T00:49:50.870Z,12.93
2022-08-02T00:50:12.915Z,13.82
2022-08-02T00:50:35.651Z,12.73
2022-08-02T00:50:57.528Z,12.93
2022-08-02T00:51:19.346Z,13.38
2022-08-02T00:51:42.141Z,13.90
2022-08-02T00:52:04.651Z,13.15
2022-08-02T00:52:26.467Z,11.68
2022-08-02T00:52:48.261Z,11.63
2022-08-02T00:53:10.665Z,11.73
2022-08-02T00:53:33.643Z,11.93
2022-08-02T00:53:55.446Z,13.00
2022-08-02T00:54:17.329Z,14.25
2022-08-02T00:54:39.105Z,11.95
2022-08-02T00:55:00.940Z,12.57
2022-08-02T00:55:30.735Z,12.82
2022-08-02T00:55:52.994Z,12.98
2022-08-02T00:56:15.086Z,14.30
2022-08-02T00:56:36.957Z,13.45
2022-08-02T00:56:58.773Z,14.10
2022-08-02T00:57:20.563Z,12.90
2022-08-02T00:57:42.323Z,15.23
2022-08-02T00:58:04.887Z,13.20
2022-08-02T00:58:26.831Z,14.23
2022-08-02T00:58:48.624Z,14.82
2022-08-02T00:59:10.755Z,11.85
2022-08-02T00:59:36.356Z,13.18
2022-08-02T00:59:59.525Z,13.98
2022-08-02T01:00:21.662Z,11.85
2022-08-02T01:00:44.107Z,12.77
2022-08-02T01:01:07.101Z,14.40
2022-08-02T01:01:56.523Z,13.13
2022-08-02T01:02:19.596Z,11.52
2022-08-02T01:02:41.700Z,13.70
2022-08-02T01:03:03.596Z,13.98
2022-08-02T01:03:28.945Z,13.73
2022-08-02T01:03:52.164Z,12.90
2022-08-02T01:04:14.644Z,12.20
2022-08-02T01:04:37.252Z,12.25
2022-08-02T01:04:59.395Z,12.73
2022-08-02T01:05:21.321Z,14.02
2022-08-02T01:06:10.260Z,12.23
2022-08-02T01:06:33.159Z,12.43
2022-08-02T01:06:54.951Z,14.18
2022-08-02T01:07:16.905Z,13.85
2022-08-02T01:07:39.376Z,13.25
2022-08-02T01:08:02.540Z,11.98
2022-08-02T01:08:29.367Z,13.40
2022-08-02T01:08:53.534Z,13.68
2022-08-02T01:09:16.144Z,13.70
2022-08-02T01:09:38.036Z,13.38
2022-08-02T01:10:03.407Z,11.98
2022-08-02T01:10:26.310Z,11.95
2022-08-02T01:10:48.112Z,13.57
2022-08-02T01:11:13.432Z,13.05
2022-08-02T01:11:36.412Z,14.45
2022-08-02T01:12:02.681Z,15.57
2022-08-02T01:12:24.798Z,15.02
2022-08-02T01:12:47.925Z,12.13
2022-08-02T01:13:09.693Z,12.18
2022-08-02T01:13:32.132Z,12.80
2022-08-02T01:14:02.588Z,12.77
2022-08-02T01:14:26.113Z,12.35
2022-08-02T01:14:51.171Z,13.35
2022-08-02T01:15:14.489Z,12.00
2022-08-02T01:15:43.560Z,12.50
2022-08-02T01:16:15.300Z,15.05
2022-08-02T01:16:55.291Z,12.63
2022-08-02T01:18:04.473Z,14.57
2022-08-02T01:18:34.276Z,13.73
2022-08-02T01:19:02.709Z,13.90
2022-08-02T01:19:35.685Z,11.38
2022-08-02T01:20:15.873Z,12.48
2022-08-02T01:20:56.679Z,11.95
2022-08-02T01:21:27.435Z,13.73
2022-08-02T01:22:58.063Z,11.85
2022-08-02T01:23:21.200Z,13.93
2022-08-02T01:24:15.462Z,11.82
2022-08-02T01:25:07.930Z,13.07
2022-08-02T01:26:04.510Z,12.07
2022-08-02T01:26:53.764Z,13.40
2022-08-02T01:27:36.287Z,11.40
2022-08-02T01:28:28.929Z,14.63
2022-08-02T01:29:06.004Z,12.23
2022-08-02T01:29:43.630Z,13.05
2022-08-02T01:30:07.221Z,12.30
2022-08-02T01:30:32.658Z,15.05
2022-08-02T01:31:08.186Z,12.10
2022-08-02T01:31:46.749Z,11.95
2022-08-02T01:32:13.404Z,12.55
2022-08-02T01:32:39.323Z,12.55
2022-08-02T01:33:03.363Z,13.20
2022-08-02T01:33:28.513Z,12.88
2022-08-02T01:34:18.007Z,11.30
2022-08-02T01:34:46.945Z,11.75
2022-08-02T01:35:23.561Z,11.10
2022-08-02T01:35:51.380Z,12.65
2022-08-02T01:36:17.547Z,13.68
2022-08-02T01:36:44.059Z,10.88
2022-08-02T01:37:26.113Z,11.63
2022-08-02T01:38:04.566Z,12.27
2022-08-02T01:38:42.252Z,11.93
2022-08-02T01:39:05.993Z,14.00
2022-08-02T01:39:32.297Z,16.13
2022-08-02T01:40:16.294Z,13.43
2022-08-02T01:40:41.811Z,11.50
2022-08-02T01:41:05.322Z,12.50
2022-08-02T01:41:29.646Z,12.82
2022-08-02T01:41:57.388Z,13.27
2022-08-02T01:42:24.679Z,12.27
2022-08-02T01:42:49.769Z,11.27
2022-08-02T01:43:13.197Z,11.45
2022-08-02T01:43:38.955Z,12.20
2022-08-02T01:44:02.991Z,11.65
2022-08-02T01:44:29.050Z,13.25
2022-08-02T01:44:54.077Z,11.57
2022-08-02T01:45:18.191Z,14.20
2022-08-02T01:45:43.165Z,12.45
2022-08-02T01:46:05.959Z,12.80
2022-08-02T01:46:30.298Z,12.25
2022-08-02T01:46:53.619Z,11.02
2022-08-02T01:47:23.046Z,12.95
2022-08-02T01:47:46.641Z,14.43
2022-08-02T01:48:10.290Z,14.07
2022-08-02T01:48:34.390Z,13.02
2022-08-02T01:48:59.518Z,13.07
2022-08-02T01:49:24.647Z,12.10
2022-08-02T01:49:50.908Z,13.57
2022-08-02T01:50:16.307Z,11.52
2022-08-02T01:50:39.630Z,13.35
2022-08-02T01:51:02.659Z,14.00
2022-08-02T01:51:44.508Z,13.88
2022-08-02T01:52:21.734Z,11.55
2022-08-02T01:52:53.103Z,12.98
2022-08-02T01:53:18.375Z,11.57
2022-08-02T01:53:43.145Z,10.73
2022-08-02T01:54:05.247Z,11.27
2022-08-02T01:54:33.411Z,11.32
2022-08-02T01:55:33.516Z,12.23
2022-08-02T01:56:11.652Z,11.57
2022-08-02T01:56:35.030Z,12.45
2022-08-02T01:56:59.229Z,13.05
2022-08-02T01:57:23.108Z,11.85
2022-08-02T01:57:48.893Z,11.27
2022-08-02T01:58:14.914Z,10.23
2022-08-02T01:58:39.487Z,11.70
2022-08-02T01:59:03.528Z,12.93
2022-08-02T01:59:26.620Z,12.40
2022-08-02T01:59:49.666Z,11.25
2022-08-02T02:00:12.707Z,13.23
2022-08-02T02:00:39.998Z,12.02
2022-08-02T02:01:02.720Z,11.60
2022-08-02T02:01:24.877Z,11.70
2022-08-02T02:01:49.547Z,11.93
2022-08-02T02:02:13.882Z,10.98
2022-08-02T02:02:41.728Z,10.73
2022-08-02T02:03:06.558Z,12.85
2022-08-02T02:03:32.139Z,11.95
2022-08-02T02:03:56.076Z,11.85
2022-08-02T02:04:20.189Z,10.75
2022-08-02T02:04:43.931Z,10.50
2022-08-02T02:05:07.220Z,12.80
2022-08-02T02:05:32.311Z,10.77
2022-08-02T02:05:59.087Z,11.52
2022-08-02T02:06:23.077Z,11.07
2022-08-02T02:06:46.565Z,10.88
2022-08-02T02:07:09.753Z,11.32
2022-08-02T02:07:35.097Z,10.90
2022-08-02T02:07:59.129Z,10.57
2022-08-02T02:08:27.230Z,11.48
2022-08-02T02:08:50.776Z,13.98
2022-08-02T02:09:17.119Z,11.93
2022-08-02T02:09:50.118Z,10.40
2022-08-02T02:10:16.925Z,12.02
2022-08-02T02:10:40.772Z,11.82
2022-08-02T02:12:09.429Z,11.60
2022-08-02T02:12:09.637Z,11.10
2022-08-02T02:12:32.180Z,12.65
2022-08-02T02:12:56.651Z,11.48
2022-08-02T02:13:20.668Z,11.15
2022-08-02T02:13:58.464Z,11.27
2022-08-02T02:14:21.721Z,12.48
2022-08-02T02:14:51.403Z,12.23
2022-08-02T02:15:14.325Z,12.13
2022-08-02T02:15:43.525Z,11.43
2022-08-02T02:16:07.144Z,12.55
2022-08-02T02:16:32.254Z,11.90
2022-08-02T02:16:55.468Z,12.77
2022-08-02T02:17:52.987Z,11.25
2022-08-02T02:18:12.936Z,11.75
2022-08-02T02:18:40.669Z,12.23
2022-08-02T02:19:04.091Z,11.90
2022-08-02T02:19:27.277Z,10.50
2022-08-02T02:19:51.421Z,10.02
2022-08-02T02:20:16.016Z,10.52
2022-08-02T02:20:39.260Z,10.95
2022-08-02T02:21:01.267Z,12.65
2022-08-02T02:21:23.116Z,11.25
2022-08-02T02:21:45.310Z,10.95
2022-08-02T02:22:07.647Z,11.43
2022-08-02T02:22:29.740Z,12.05
2022-08-02T02:22:52.154Z,15.68
2022-08-02T02:23:14.262Z,13.38
2022-08-02T02:23:36.204Z,10.70
2022-08-02T02:23:59.666Z,10.20
2022-08-02T02:24:22.239Z,11.13
2022-08-02T02:24:44.672Z,9.50
2022-08-02T02:25:12.345Z,9.52
2022-08-02T02:25:41.534Z,12.48
2022-08-02T02:26:06.193Z,10.25
2022-08-02T02:26:32.168Z,9.50
2022-08-02T02:26:53.999Z,9.90
2022-08-02T02:27:17.534Z,11.85
2022-08-02T02:27:48.219Z,11.43
2022-08-02T02:28:14.581Z,11.82
2022-08-02T02:28:39.272Z,11.55
2022-08-02T02:29:03.154Z,10.55
2022-08-02T02:29:28.481Z,10.13
2022-08-02T02:29:52.424Z,9.85
2022-08-02T02:30:14.565Z,11.82
2022-08-02T02:30:40.029Z,12.00
2022-08-02T02:31:09.535Z,9.88
2022-08-02T02:31:38.318Z,12.80
2022-08-02T02:32:01.443Z,11.63
2022-08-02T02:32:25.485Z,10.63
2022-08-02T02:32:50.458Z,10.15
2022-08-02T02:33:14.358Z,10.77
2022-08-02T02:33:59.722Z,11.55
2022-08-02T02:34:35.774Z,10.20
2022-08-02T02:35:00.435Z,11.57
2022-08-02T02:35:23.139Z,11.45
2022-08-02T02:35:48.345Z,12.68
2022-08-02T02:36:12.286Z,10.55
2022-08-02T02:36:35.336Z,11.02
2022-08-02T02:37:01.367Z,10.40
2022-08-02T02:37:24.389Z,10.35
2022-08-02T02:37:48.396Z,11.75
2022-08-02T02:38:16.703Z,9.82
2022-08-02T02:38:40.421Z,10.18
2022-08-02T02:39:04.471Z,9.68
2022-08-02T02:39:38.032Z,10.45
2022-08-02T02:40:01.168Z,10.75
2022-08-02T02:40:23.977Z,11.80
2022-08-02T02:40:47.477Z,12.43
2022-08-02T02:41:10.720Z,12.38
2022-08-02T02:41:33.022Z,12.10
2022-08-02T02:41:58.711Z,10.80
2022-08-02T02:42:27.197Z,11.93
2022-08-02T02:42:51.249Z,12.88
2022-08-02T02:43:14.960Z,10.13
2022-08-02T02:43:38.641Z,9.68
2022-08-02T02:44:03.943Z,10.48
2022-08-02T02:44:26.540Z,9.93
2022-08-02T02:44:49.456Z,9.80
2022-08-02T02:45:12.515Z,9.80
2022-08-02T02:45:36.665Z,10.27
2022-08-02T02:46:01.081Z,11.30
2022-08-02T02:46:24.922Z,9.93
2022-08-02T02:46:49.778Z,10.60
2022-08-02T02:47:12.327Z,11.80
2022-08-02T02:47:40.531Z,11.57
2022-08-02T02:48:07.472Z,9.77
2022-08-02T02:48:30.504Z,9.90
2022-08-02T02:48:53.006Z,10.43
2022-08-02T02:49:16.572Z,11.20
2022-08-02T02:49:40.452Z,10.82
2022-08-02T02:50:02.884Z,11.77
2022-08-02T02:50:25.468Z,9.48
2022-08-02T02:50:48.747Z,9.43
2022-08-02T02:51:14.148Z,9.75
2022-08-02T02:51:37.414Z,11.82
2022-08-02T02:52:00.241Z,12.45
2022-08-02T02:52:22.378Z,10.88
2022-08-02T02:52:45.027Z,11.13
2022-08-02T02:53:07.639Z,10.07
2022-08-02T02:53:30.848Z,10.57
2022-08-02T02:54:30.519Z,11.48
2022-08-02T02:54:56.746Z,10.75
2022-08-02T02:55:19.179Z,10.60
2022-08-02T02:56:01.675Z,12.13
2022-08-02T02:56:25.153Z,9.45
2022-08-02T02:56:47.953Z,10.73
2022-08-02T02:57:10.835Z,10.68
2022-08-02T02:57:33.966Z,10.93
2022-08-02T02:57:56.485Z,10.90
2022-08-02T02:58:18.580Z,11.15
2022-08-02T02:58:40.663Z,11.80
2022-08-02T02:59:03.940Z,10.70
2022-08-02T02:59:27.042Z,13.07
2022-08-02T02:59:50.089Z,10.23
2022-08-02T03:00:14.375Z,10.95
2022-08-02T03:00:54.985Z,10.27
2022-08-02T03:01:55.523Z,10.68
2022-08-02T03:02:14.258Z,10.40
2022-08-02T03:02:38.771Z,11.40
2022-08-02T03:03:00.650Z,11.23
2022-08-02T03:03:23.767Z,10.95
2022-08-02T03:03:47.134Z,9.98
2022-08-02T03:04:11.714Z,11.30
2022-08-02T03:04:55.563Z,11.52
2022-08-02T03:05:16.217Z,11.25
2022-08-02T03:05:39.357Z,10.20
2022-08-02T03:06:01.233Z,9.48
2022-08-02T03:06:23.244Z,10.07
2022-08-02T03:06:45.960Z,10.35
2022-08-02T03:07:08.188Z,9.95
2022-08-02T03:07:32.090Z,9.32
2022-08-02T03:07:54.396Z,9.18
2022-08-02T03:08:16.455Z,9.85
2022-08-02T03:08:40.977Z,9.73
2022-08-02T03:09:05.564Z,10.15
2022-08-02T03:09:27.414Z,10.07
2022-08-02T03:09:54.122Z,10.57
2022-08-02T03:10:16.807Z,9.73
2022-08-02T03:10:39.050Z,9.88
2022-08-02T03:11:01.064Z,10.77
2022-08-02T03:11:25.790Z,11.93
2022-08-02T03:11:48.452Z,11.38
2022-08-02T03:12:11.175Z,11.40
2022-08-02T03:12:36.640Z,11.68
2022-08-02T03:12:59.519Z,10.75
2022-08-02T03:13:21.646Z,11.07
2022-08-02T03:13:44.221Z,10.57
2022-08-02T03:14:09.679Z,9.15
2022-08-02T03:14:31.717Z,11.10
2022-08-02T03:14:55.269Z,10.10
2022-08-02T03:15:17.984Z,10.20
2022-08-02T03:15:40.543Z,10.27
2022-08-02T03:16:03.228Z,9.38
2022-08-02T03:16:28.716Z,10.40
2022-08-02T03:16:53.700Z,9.77
2022-08-02T03:17:16.539Z,9.80
2022-08-02T03:17:43.364Z,10.35
2022-08-02T03:18:07.994Z,10.18
2022-08-02T03:18:37.134Z,10.82
2022-08-02T03:19:03.338Z,11.32
2022-08-02T03:19:25.250Z,10.85
2022-08-02T03:19:55.132Z,10.52
2022-08-02T03:20:19.805Z,9.90
2022-08-02T03:20:41.617Z,10.52
2022-08-02T03:21:06.793Z,8.98
2022-08-02T03:21:28.750Z,10.27
2022-08-02T03:21:57.285Z,10.87
2022-08-02T03:22:19.716Z,10.45
2022-08-02T03:22:42.172Z,10.93
2022-08-02T03:23:03.991Z,11.50
2022-08-02T03:23:25.881Z,9.50
2022-08-02T03:23:48.423Z,8.65
2022-08-02T03:24:10.643Z,9.07
2022-08-02T03:24:32.721Z,9.60
2022-08-02T03:24:54.735Z,10.30
2022-08-02T03:25:18.131Z,9.70
2022-08-02T03:25:39.942Z,9.52
2022-08-02T03:26:02.237Z,10.90
2022-08-02T03:26:24.617Z,10.93
2022-08-02T03:26:46.735Z,9.70
2022-08-02T03:27:08.635Z,11.70
2022-08-02T03:27:30.430Z,11.20
2022-08-02T03:27:52.315Z,11.05
2022-08-02T03:28:14.151Z,11.43
2022-08-02T03:28:36.327Z,11.27
2022-08-02T03:28:58.319Z,11.68
2022-08-02T03:29:20.151Z,9.90
2022-08-02T03:29:42.052Z,11.13
2022-08-02T03:30:07.089Z,10.63
2022-08-02T03:30:28.886Z,9.05
2022-08-02T03:30:51.927Z,9.00
2022-08-02T03:31:14.026Z,11.20
2022-08-02T03:31:37.290Z,9.32
2022-08-02T03:31:59.089Z,10.15
2022-08-02T03:32:21.105Z,9.65
2022-08-02T03:32:45.792Z,11.35
2022-08-02T03:33:07.656Z,10.70
2022-08-02T03:33:30.496Z,11.07
2022-08-02T03:33:52.843Z,9.18
2022-08-02T03:34:14.745Z,8.67
2022-08-02T03:34:36.710Z,8.75
2022-08-02T03:34:58.551Z,10.18
2022-08-02T03:35:24.099Z,10.23
2022-08-02T03:35:48.744Z,9.25
2022-08-02T03:36:16.537Z,8.93
2022-08-02T03:36:40.306Z,11.00
2022-08-02T03:37:03.938Z,10.00
2022-08-02T03:37:27.083Z,9.68
2022-08-02T03:37:52.694Z,10.13
2022-08-02T03:38:18.049Z,8.32
2022-08-02T03:38:42.234Z,9.65
2022-08-02T03:39:05.167Z,10.65
2022-08-02T03:39:27.601Z,8.93
2022-08-02T03:39:53.159Z,8.90
2022-08-02T03:40:15.658Z,11.15
2022-08-02T03:40:37.976Z,10.05
2022-08-02T03:41:02.313Z,8.60
2022-08-02T03:41:24.594Z,9.30
2022-08-02T03:41:48.499Z,10.60
2022-08-02T03:42:15.369Z,10.15
2022-08-02T03:42:40.327Z,9.20
2022-08-02T03:43:02.853Z,8.68
2022-08-02T03:43:28.899Z,10.32
2022-08-02T03:43:51.664Z,10.60
2022-08-02T03:44:15.314Z,10.85
2022-08-02T03:44:39.439Z,11.85
2022-08-02T03:45:08.172Z,10.18
2022-08-02T03:45:31.655Z,8.68
2022-08-02T03:45:55.456Z,8.95
2022-08-02T03:46:21.722Z,9.65
2022-08-02T03:46:44.261Z,8.23
2022-08-02T03:47:08.478Z,12.65
2022-08-02T03:47:31.832Z,11.27
2022-08-02T03:47:53.710Z,9.20
2022-08-02T03:48:34.468Z,10.55
2022-08-02T03:48:57.539Z,9.30
2022-08-02T03:49:20.619Z,9.30
2022-08-02T03:49:44.127Z,10.23
2022-08-02T03:50:08.177Z,11.90
2022-08-02T03:50:30.450Z,10.75
2022-08-02T03:50:52.644Z,12.15
2022-08-02T03:51:16.179Z,12.05
2022-08-02T03:51:38.093Z,11.57
2022-08-02T03:52:01.868Z,9.77
2022-08-02T03:52:26.566Z,10.32
2022-08-02T03:52:49.652Z,10.57
2022-08-02T03:53:20.011Z,11.85
2022-08-02T03:53:43.230Z,9.13
2022-08-02T03:54:05.249Z,10.23
2022-08-02T03:54:33.092Z,9.70
2022-08-02T03:55:09.185Z,8.73
2022-08-02T03:55:31.045Z,11.20
2022-08-02T03:55:56.136Z,10.02
2022-08-02T03:56:18.601Z,9.32
2022-08-02T03:56:40.515Z,11.30
2022-08-02T03:57:02.822Z,10.82
2022-08-02T03:57:24.720Z,11.23
2022-08-02T03:57:46.687Z,8.50
2022-08-02T04:05:37.465Z,9.27
2022-08-02T04:06:19.596Z,9.97
2022-08-02T04:06:49.598Z,9.35
2022-08-02T04:07:13.042Z,8.90
2022-08-02T04:08:33.366Z,8.80
2022-08-02T04:08:35.086Z,11.43
2022-08-02T04:08:58.359Z,8.00
2022-08-02T04:09:20.150Z,8.10
2022-08-02T04:09:41.922Z,8.25
2022-08-02T04:10:06.316Z,8.88
2022-08-02T04:10:28.916Z,9.45
2022-08-02T04:11:09.246Z,8.50
2022-08-02T04:11:31.042Z,9.07
2022-08-02T04:11:53.106Z,8.93
2022-08-02T04:12:14.892Z,11.15
2022-08-02T04:12:37.155Z,10.57
2022-08-02T04:12:59.103Z,8.65
2022-08-02T04:13:21.766Z,9.40
2022-08-02T04:13:44.432Z,7.93
2022-08-02T04:14:10.417Z,8.50
2022-08-02T04:14:35.704Z,9.30
2022-08-02T04:15:00.047Z,9.10
2022-08-02T04:15:23.386Z,9.23
2022-08-02T04:15:46.948Z,9.70
2022-08-02T04:16:16.253Z,10.40
2022-08-02T04:16:43.378Z,11.50
2022-08-02T04:17:09.228Z,11.13
2022-08-02T04:17:33.568Z,10.52
2022-08-02T04:17:59.519Z,12.85
2022-08-02T04:18:24.617Z,8.25
2022-08-02T04:18:58.062Z,9.98
2022-08-02T04:19:39.965Z,9.50
2022-08-02T04:20:06.583Z,8.50
2022-08-02T04:20:32.966Z,9.43
2022-08-02T04:20:55.623Z,11.13
2022-08-02T04:21:20.791Z,11.50
2022-08-02T04:21:50.348Z,8.45
2022-08-02T04:22:30.401Z,9.90
2022-08-02T04:23:04.603Z,8.10
2022-08-02T04:23:29.505Z,9.85
2022-08-02T04:23:54.358Z,8.70
2022-08-02T04:24:18.925Z,8.90
2022-08-02T04:24:47.450Z,8.32
2022-08-02T04:25:17.512Z,9.77
2022-08-02T04:25:40.835Z,10.20
2022-08-02T04:26:07.901Z,8.05
2022-08-02T04:26:34.759Z,9.63
2022-08-02T04:27:06.351Z,10.70
2022-08-02T04:27:51.395Z,9.90
2022-08-02T04:28:16.967Z,9.75
2022-08-02T04:28:41.517Z,9.48
2022-08-02T04:29:04.380Z,11.88
2022-08-02T04:29:27.712Z,9.95
2022-08-02T04:29:51.619Z,10.88
2022-08-02T04:30:16.242Z,9.80
2022-08-02T04:30:39.573Z,11.68
2022-08-02T04:31:02.609Z,10.93
2022-08-02T04:31:26.925Z,9.52
2022-08-02T04:31:49.407Z,9.85
2022-08-02T04:32:13.960Z,10.43
2022-08-02T04:32:37.667Z,10.45
2022-08-02T04:33:00.291Z,11.73
2022-08-02T04:33:23.244Z,12.52
2022-08-02T04:33:46.702Z,9.73
2022-08-02T04:34:08.787Z,10.98
2022-08-02T04:34:31.600Z,11.48
2022-08-02T04:35:18.147Z,11.63
2022-08-02T04:35:36.889Z,11.13
2022-08-02T04:35:59.804Z,12.82
2022-08-02T04:36:30.843Z,10.15
2022-08-02T04:36:54.944Z,12.52
2022-08-02T04:37:17.248Z,13.25
2022-08-02T04:37:39.406Z,11.23
2022-08-02T04:38:21.720Z,14.02
2022-08-02T04:38:43.741Z,15.15
2022-08-02T04:39:06.107Z,14.43
2022-08-02T04:39:28.617Z,10.77
2022-08-02T04:39:51.250Z,10.85
2022-08-02T04:40:13.708Z,11.77
2022-08-02T04:40:36.091Z,11.45
2022-08-02T04:40:59.549Z,10.02
2022-08-02T04:41:21.403Z,10.65
2022-08-02T04:41:45.389Z,11.30
2022-08-02T04:42:07.344Z,12.32
2022-08-02T04:42:29.361Z,11.38
2022-08-02T04:42:51.153Z,9.85
2022-08-02T04:43:14.485Z,10.02
2022-08-02T04:43:36.415Z,12.43
2022-08-02T04:43:58.195Z,10.48
2022-08-02T04:44:20.233Z,12.13
2022-08-02T04:44:44.977Z,10.15
2022-08-02T04:45:08.402Z,9.68
2022-08-02T04:45:31.308Z,11.00
2022-08-02T04:45:54.123Z,11.10
2022-08-02T04:46:15.942Z,9.95
2022-08-02T04:46:38.021Z,10.77
2022-08-02T04:47:06.705Z,9.93
2022-08-02T04:47:54.249Z,11.23
2022-08-02T04:48:11.010Z,11.25
2022-08-02T04:48:33.569Z,11.65
2022-08-02T04:48:55.369Z,12.23
2022-08-02T04:49:17.460Z,12.20
2022-08-02T04:49:39.508Z,11.52
2022-08-02T04:50:02.790Z,12.18
2022-08-02T04:50:24.740Z,10.40
2022-08-02T04:50:48.287Z,15.02
2022-08-02T04:51:10.253Z,15.40
2022-08-02T04:51:42.514Z,12.82
2022-08-02T04:52:04.889Z,11.65
2022-08-02T04:52:26.802Z,10.45
2022-08-02T04:52:48.923Z,10.27
2022-08-02T04:53:10.696Z,11.80
2022-08-02T04:53:34.750Z,12.10
2022-08-02T04:54:03.620Z,10.75
2022-08-02T04:54:32.082Z,11.63
2022-08-02T04:54:54.202Z,10.88
2022-08-02T04:55:15.971Z,11.80
2022-08-02T04:55:38.583Z,12.25
2022-08-02T04:56:01.282Z,12.15
2022-08-02T04:56:23.476Z,11.23
2022-08-02T04:56:45.580Z,9.88
2022-08-02T04:57:27.704Z,12.48
2022-08-02T04:57:55.660Z,11.13
2022-08-02T04:58:39.259Z,10.98
2022-08-02T04:59:01.097Z,11.05
2022-08-02T04:59:24.247Z,10.68
2022-08-02T04:59:54.242Z,11.27
2022-08-02T05:00:17.175Z,11.13
2022-08-02T05:00:39.911Z,11.02
2022-08-02T05:01:02.633Z,15.55
2022-08-02T05:01:25.180Z,15.00
2022-08-02T05:01:47.310Z,11.68
2022-08-02T05:02:10.068Z,13.52
2022-08-02T05:02:32.444Z,11.32
2022-08-02T05:02:56.783Z,14.07
2022-08-02T05:03:18.916Z,12.93
2022-08-02T05:03:41.419Z,14.17
2022-08-02T05:04:04.069Z,10.27
2022-08-02T05:04:25.879Z,12.23
2022-08-02T05:04:47.711Z,11.32
2022-08-02T05:05:10.362Z,12.75
2022-08-02T05:05:32.608Z,13.32
2022-08-02T05:05:54.620Z,12.73
2022-08-02T05:06:19.766Z,14.70
2022-08-02T05:06:41.805Z,13.70
2022-08-02T05:07:03.549Z,10.63
2022-08-02T05:07:25.307Z,12.05
2022-08-02T05:07:47.295Z,12.73
2022-08-02T05:08:12.381Z,11.02
2022-08-02T05:08:34.461Z,11.70
2022-08-02T05:08:56.200Z,10.55
2022-08-02T05:09:18.029Z,13.10
2022-08-02T05:09:40.000Z,13.82
2022-08-02T05:10:02.526Z,9.95
2022-08-02T05:10:28.392Z,10.63
2022-08-02T05:10:51.897Z,13.48
2022-08-02T05:11:17.019Z,13.20
2022-08-02T05:11:38.800Z,11.52
2022-08-02T05:12:00.687Z,13.82
2022-08-02T05:12:26.234Z,13.38
2022-08-02T05:12:48.173Z,12.98
2022-08-02T05:13:11.278Z,12.25
2022-08-02T05:13:33.132Z,12.02
2022-08-02T05:14:14.878Z,10.30
2022-08-02T05:14:36.782Z,10.93
2022-08-02T05:14:58.561Z,12.93
2022-08-02T05:15:20.980Z,11.13
2022-08-02T05:15:42.830Z,9.93
2022-08-02T05:16:05.431Z,10.40
2022-08-02T05:16:31.234Z,10.80
2022-08-02T05:16:53.845Z,11.43
2022-08-02T05:17:16.318Z,11.05
2022-08-02T05:17:38.132Z,12.25
2022-08-02T05:18:00.656Z,11.73
2022-08-02T05:18:22.414Z,11.85
2022-08-02T05:18:44.534Z,10.75
2022-08-02T05:19:06.574Z,10.93
2022-08-02T05:19:28.458Z,12.68
2022-08-02T05:19:50.445Z,11.98
2022-08-02T05:20:16.732Z,11.32
2022-08-02T05:20:38.499Z,14.00
2022-08-02T05:21:00.338Z,11.13
2022-08-02T05:21:22.709Z,12.68
2022-08-02T05:21:44.475Z,13.27
2022-08-02T05:22:06.291Z,10.15
2022-08-02T05:22:29.310Z,11.63
2022-08-02T05:22:51.110Z,11.32
2022-08-02T05:23:12.998Z,11.88
2022-08-02T05:23:36.843Z,12.32
2022-08-02T05:23:58.650Z,12.73
2022-08-02T05:24:20.763Z,13.52
2022-08-02T05:24:42.581Z,11.60
2022-08-02T05:25:07.721Z,10.18
2022-08-02T05:25:29.550Z,10.75
2022-08-02T05:25:51.436Z,11.20
2022-08-02T05:26:13.178Z,11.02
2022-08-02T05:26:34.999Z,10.27
2022-08-02T05:26:56.827Z,10.52
2022-08-02T05:27:21.745Z,11.75
2022-08-02T05:27:43.936Z,10.90
2022-08-02T05:28:11.029Z,11.55
2022-08-02T05:28:33.355Z,11.20
2022-08-02T05:28:58.486Z,8.85
2022-08-02T05:29:20.252Z,8.95
2022-08-02T05:29:52.950Z,9.80
2022-08-02T05:30:17.557Z,10.15
2022-08-02T05:30:43.398Z,11.23
2022-08-02T05:31:05.350Z,11.18
2022-08-02T05:31:35.940Z,10.98
2022-08-02T05:31:57.713Z,9.02
2022-08-02T05:32:19.732Z,9.88
2022-08-02T05:32:48.184Z,9.60
2022-08-02T05:33:10.190Z,11.13
2022-08-02T05:33:31.949Z,9.35
2022-08-02T05:33:53.729Z,9.63
2022-08-02T05:34:15.685Z,9.55
2022-08-02T05:34:37.490Z,8.20
2022-08-02T05:35:01.864Z,8.43